This is the latest recevied weather packets stored in our database for station/object KG4GJX. If no packets are shown the sender has not sent any weather packets the latest 10 day(s).
| Time | Temp. | Humidity | Pressure | Rain* | Wind** | Luminosity | Snow |
|---|---|---|---|---|---|---|---|
| 1788022227 | 31.67° C | 62% | 1021.6 hPa | 0 mm | - | - | - |
| 1788021564 | 31.67° C | 62% | 1021.6 hPa | 0 mm | - | - | - |
| 1788020902 | 31.11° C | 65% | 1022 hPa | 0 mm | - | - | - |
| 1788020240 | 30.56° C | 64% | 1021.6 hPa | 0 mm | - | - | - |
| 1788019577 | 30° C | 68% | 1021.6 hPa | 0 mm | - | - | - |
| 1788018914 | 28.89° C | 72% | 1021.6 hPa | 0 mm | - | - | - |
| 1788018252 | 28.89° C | 72% | 1022 hPa | 0 mm | - | - | - |
| 1788017590 | 28.33° C | 73% | 1022 hPa | 0 mm | - | - | - |
| 1788016927 | 27.78° C | 80% | 1021.6 hPa | 0 mm | - | - | - |
| 1788016265 | 27.78° C | 77% | 1022 hPa | 0 mm | - | - | - |
| 1788015602 | 27.78° C | 78% | 1021.6 hPa | 0 mm | - | - | - |
| 1788011889 | 25° C | 98% | 1021.3 hPa | 0 mm | - | - | - |
| 1788011226 | 24.44° C | 100% | 1020.9 hPa | 0 mm | - | - | - |
| 1788010563 | 23.89° C | 100% | 1020.9 hPa | 0 mm | - | - | - |
| 1788009901 | 22.78° C | 100% | 1020.9 hPa | 0 mm | - | - | - |
| 1788009239 | 22.22° C | 100% | 1020.9 hPa | 0 mm | - | - | - |
| 1788008576 | 21.67° C | 100% | 1020.9 hPa | 0 mm | - | - | - |
| 1788007254 | 21.11° C | 100% | 1020.9 hPa | 0 mm | - | - | - |
| 1788006591 | 20° C | 100% | 1020.9 hPa | 0 mm | - | - | - |
| 1788005941 | 19.44° C | 100% | 1020.9 hPa | 0 mm | - | - | - |
| 1788003947 | 18.89° C | 100% | 1020.6 hPa | 0 mm | - | - | - |
| 1788000644 | 18.89° C | 100% | 1020.3 hPa | 0 mm | - | - | - |
| 1787998662 | 18.89° C | 100% | 1019.9 hPa | 0 mm | - | - | - |
| 1787998000 | 18.89° C | 100% | 1019.9 hPa | 0 mm | - | - | - |
| 1787997337 | 18.89° C | 100% | 1019.9 hPa | 0 mm | - | - | - |
* Rain latest hour (hover to see other rain measurements)
** Current wind speed in m/s (hover to see current wind gust speed)